Traskwood, Arkansas
Current Conditions -  °F | °C
As of 9:06 AM on Thursday 30 Oct 2014 (Local Time) from KHOT Reporting Station
Scattered Clouds Scattered Clouds  
Wind Chill: 46°   Ceiling: Unl
Heat Index: 46°   Visibility: 10mi
Dew Point: 45°   Wind: 3mph
Humidity: 96%   Direction: 310°NW
Pressure: 30.18"   Gusts: NA
Location:  34.45°N, 92.65°W
Report Text: KHOT 301406Z AUTO 31003KT 10SM SCT001 08/07 A3018 RMK AO2 T00780072
Loading
Personal Weather Stations






























Interactive Weather Map New forecast layout! Learn more

10-Day Weather Forecast

Advertisements
Track Severe Weather on mobile